Time;durP1;ratioP1;P1;durP2;ratioP2;P2;SDS_P1;SDS_P2;PMS_P1;PMS_P2;Temp;Humidity;BMP_temperature;BMP_pressure;BME280_temperature;BME280_humidity;BME280_pressure;Samples;Min_cycle;Max_cycle;Signal;HPM_P1;HPM_P2
2023/03/13 00:00:31;;;;;;;16.20;5.97;;;4.70;99.90;;;;;;4934969;29;20214;-77
2023/03/13 00:02:57;;;;;;;17.05;5.93;;;4.60;99.90;;;;;;4935504;29;20241;-77
2023/03/13 00:05:22;;;;;;;16.77;6.07;;;4.60;99.90;;;;;;4939580;29;20277;-77
2023/03/13 00:07:48;;;;;;;19.90;5.93;;;4.60;99.90;;;;;;4939458;29;20274;-77
2023/03/13 00:10:13;;;;;;;15.70;5.20;;;4.70;99.90;;;;;;4939173;29;20745;-77
2023/03/13 00:12:39;;;;;;;13.10;5.40;;;4.70;99.90;;;;;;4937959;29;20196;-77
2023/03/13 00:15:05;;;;;;;19.00;4.83;;;4.70;99.90;;;;;;4940164;29;20197;-77
2023/03/13 00:17:32;;;;;;;17.00;5.07;;;4.80;99.90;;;;;;4937764;29;20217;-77
2023/03/13 00:19:57;;;;;;;19.50;5.85;;;4.90;99.90;;;;;;4939181;29;20237;-77
2023/03/13 00:22:23;;;;;;;29.73;6.30;;;5.00;99.90;;;;;;4938070;29;20222;-77
2023/03/13 00:24:48;;;;;;;16.05;4.60;;;5.10;99.90;;;;;;4938922;29;20186;-77
2023/03/13 00:27:14;;;;;;;21.38;5.15;;;5.30;99.90;;;;;;4937978;29;20206;-77
2023/03/13 00:29:40;;;;;;;24.67;5.78;;;5.40;99.90;;;;;;4937660;29;20186;-77
2023/03/13 00:32:05;;;;;;;17.48;5.18;;;5.50;99.90;;;;;;4938705;29;20708;-77
2023/03/13 00:34:31;;;;;;;15.15;4.25;;;5.60;99.90;;;;;;4938312;29;20186;-77
2023/03/13 00:36:56;;;;;;;20.88;4.57;;;5.60;99.90;;;;;;4937477;29;20623;-77
2023/03/13 00:39:22;;;;;;;17.85;4.63;;;5.70;99.90;;;;;;4938631;29;20241;-77
2023/03/13 00:41:47;;;;;;;20.55;5.10;;;5.70;99.90;;;;;;4937499;29;20189;-77
2023/03/13 00:44:13;;;;;;;19.48;5.70;;;5.80;99.90;;;;;;4938306;29;20264;-77
2023/03/13 00:46:39;;;;;;;16.92;4.75;;;5.80;99.90;;;;;;4937324;29;20199;-77
2023/03/13 00:49:05;;;;;;;15.13;4.25;;;5.80;99.90;;;;;;4937312;29;20201;-77
2023/03/13 00:51:31;;;;;;;18.25;4.38;;;5.90;99.90;;;;;;4937593;29;20261;-77
2023/03/13 00:53:59;;;;;;;20.05;5.13;;;5.90;99.90;;;;;;4939309;29;20186;-77
2023/03/13 00:56:25;;;;;;;19.25;4.88;;;5.90;99.90;;;;;;4938437;29;20194;-77
2023/03/13 00:58:51;;;;;;;18.90;4.47;;;5.90;99.90;;;;;;4937024;29;20214;-77
2023/03/13 01:01:23;;;;;;;15.45;4.68;;;5.90;99.90;;;;;;4937862;29;20226;-77
2023/03/13 01:03:54;;;;;;;17.45;5.03;;;5.90;99.90;;;;;;4938541;29;20178;-77
2023/03/13 01:06:25;;;;;;;19.92;5.22;;;5.90;99.90;;;;;;4937109;29;20221;-77
2023/03/13 01:08:51;;;;;;;17.77;4.43;;;5.90;99.90;;;;;;4937058;29;20205;-77
2023/03/13 01:11:20;;;;;;;16.60;4.55;;;5.80;99.90;;;;;;4936988;29;20178;-77
2023/03/13 01:13:48;;;;;;;20.52;4.65;;;5.80;99.90;;;;;;4936932;29;20190;-77
2023/03/13 01:16:19;;;;;;;18.70;5.03;;;5.80;99.90;;;;;;4936986;29;20198;-77
2023/03/13 01:18:47;;;;;;;17.80;5.13;;;5.80;99.90;;;;;;4937996;29;20186;-77
2023/03/13 01:21:14;;;;;;;20.83;4.50;;;5.70;99.90;;;;;;4936753;29;20320;-77
2023/03/13 01:23:40;;;;;;;24.58;5.07;;;5.80;99.90;;;;;;4937907;29;20182;-77
2023/03/13 01:26:07;;;;;;;23.65;5.55;;;5.80;99.90;;;;;;4936536;29;20194;-77
2023/03/13 01:28:34;;;;;;;18.60;4.40;;;5.80;99.90;;;;;;4937399;29;20183;-77
2023/03/13 01:31:00;;;;;;;18.27;4.55;;;5.80;99.90;;;;;;4937894;29;20229;-77
2023/03/13 01:36:49;;;;;;;17.65;4.63;;;5.80;99.90;;;;;;4937717;29;20222;-77
2023/03/13 01:39:15;;;;;;;17.20;4.53;;;5.80;99.90;;;;;;4937059;29;20225;-77
2023/03/13 01:41:41;;;;;;;19.95;4.97;;;5.80;99.90;;;;;;4937275;29;20607;-77
2023/03/13 01:44:24;;;;;;;20.00;4.95;;;5.90;99.90;;;;;;4936330;29;20273;-77
2023/03/13 01:46:50;;;;;;;22.38;4.60;;;5.90;99.90;;;;;;4938148;29;20202;-77
2023/03/13 01:49:32;;;;;;;21.15;5.07;;;5.90;99.90;;;;;;4937738;29;20729;-77
2023/03/13 01:52:02;;;;;;;20.52;5.20;;;5.90;99.90;;;;;;4937210;29;20205;-77
2023/03/13 01:54:33;;;;;;;20.10;5.20;;;6.00;99.90;;;;;;4936904;29;20174;-77
2023/03/13 01:57:23;;;;;;;19.55;4.88;;;6.00;99.90;;;;;;4937567;29;20203;-77
2023/03/13 01:59:54;;;;;;;21.55;5.43;;;6.00;99.90;;;;;;4937446;29;20249;-77
2023/03/13 07:17:13;;;;;;;10.15;5.72;;;8.30;99.90;;;;;;5904745;23;20268;-77
2023/03/13 07:19:39;;;;;;;7.82;4.75;;;8.40;99.90;;;;;;4919755;29;20203;-77
2023/03/13 07:22:05;;;;;;;19.50;7.80;;;8.40;99.90;;;;;;4917253;29;20249;-76
2023/03/13 07:24:30;;;;;;;9.10;4.32;;;8.40;99.90;;;;;;4915884;29;20186;-77
2023/03/13 07:26:56;;;;;;;11.73;3.78;;;8.40;99.90;;;;;;4916160;29;20206;-77
2023/03/13 07:29:21;;;;;;;8.60;4.07;;;8.50;99.90;;;;;;4915919;29;20202;-77
2023/03/13 07:31:48;;;;;;;7.13;3.20;;;8.50;99.90;;;;;;4915954;29;20185;-77
2023/03/13 07:34:13;;;;;;;5.47;3.90;;;8.50;99.90;;;;;;4917369;29;20199;-77
2023/03/13 07:36:40;;;;;;;8.80;4.10;;;8.50;99.90;;;;;;4917015;29;20199;-77
2023/03/13 07:39:06;;;;;;;9.60;3.38;;;8.50;99.90;;;;;;4915982;29;20186;-77
2023/03/13 07:41:32;;;;;;;8.02;3.95;;;8.60;99.90;;;;;;4916583;29;20518;-77
2023/03/13 07:43:58;;;;;;;8.88;3.63;;;8.60;99.90;;;;;;4915796;29;20185;-77
2023/03/13 07:46:24;;;;;;;5.40;3.55;;;8.60;99.90;;;;;;4915656;29;20258;-77
2023/03/13 07:48:50;;;;;;;11.07;7.15;;;8.70;99.90;;;;;;4915837;29;20175;-77
2023/03/13 07:51:21;;;;;;;11.45;3.53;;;8.60;99.90;;;;;;4915731;29;20571;-77
2023/03/13 07:53:47;;;;;;;6.20;3.38;;;8.70;99.90;;;;;;4915743;29;20234;-77
2023/03/13 07:56:15;;;;;;;6.38;3.40;;;8.80;99.90;;;;;;4915633;29;20203;-77
2023/03/13 07:58:41;;;;;;;5.72;2.85;;;8.80;99.90;;;;;;4916558;29;20187;-77
2023/03/13 08:01:13;;;;;;;7.53;3.35;;;8.80;99.90;;;;;;4917051;29;20314;-77
2023/03/13 08:03:39;;;;;;;5.57;3.10;;;8.90;99.90;;;;;;4916841;29;20175;-77
2023/03/13 08:06:13;;;;;;;6.55;3.35;;;9.00;99.90;;;;;;4915666;29;20218;-77
2023/03/13 08:08:39;;;;;;;4.68;3.15;;;9.00;99.90;;;;;;4915680;29;20241;-77
2023/03/13 08:11:13;;;;;;;6.82;3.33;;;9.10;99.90;;;;;;4915577;29;20195;-77
2023/03/13 08:13:40;;;;;;;7.07;3.28;;;9.10;99.90;;;;;;4915564;29;20178;-77
2023/03/13 08:16:10;;;;;;;8.23;3.30;;;9.10;99.90;;;;;;4915726;29;20207;-77
2023/03/13 08:18:39;;;;;;;7.28;3.67;;;9.20;99.90;;;;;;4915674;29;20206;-76
2023/03/13 08:21:09;;;;;;;6.10;3.42;;;9.20;99.90;;;;;;4915767;29;20601;-77
2023/03/13 08:23:36;;;;;;;9.80;3.78;;;9.20;99.90;;;;;;4916244;29;20167;-77
2023/03/13 08:26:07;;;;;;;4.55;3.00;;;9.20;99.90;;;;;;4918265;29;20199;-77
2023/03/13 08:28:33;;;;;;;4.65;3.10;;;9.30;99.90;;;;;;4918935;29;20174;-77
2023/03/13 08:31:05;;;;;;;8.02;3.38;;;9.20;99.90;;;;;;4918811;29;20182;-77
2023/03/13 08:33:33;;;;;;;5.35;3.20;;;9.30;99.90;;;;;;4919299;29;20258;-77
2023/03/13 08:35:59;;;;;;;5.35;3.30;;;9.40;99.90;;;;;;4920653;29;20203;-78
2023/03/13 08:38:24;;;;;;;5.40;3.30;;;9.40;99.90;;;;;;4919219;29;20197;-78
2023/03/13 08:40:56;;;;;;;4.28;2.85;;;9.50;99.90;;;;;;4918740;29;20203;-78
2023/03/13 08:43:22;;;;;;;6.57;3.30;;;9.50;99.90;;;;;;4919415;29;20175;-77
2023/03/13 08:45:54;;;;;;;3.58;3.17;;;9.60;99.90;;;;;;4919859;29;20234;-77
2023/03/13 08:48:19;;;;;;;4.20;2.78;;;9.70;99.90;;;;;;4918519;29;20634;-77
2023/03/13 08:50:45;;;;;;;4.88;2.85;;;9.80;99.90;;;;;;4918390;29;20218;-77
2023/03/13 08:53:10;;;;;;;6.97;5.05;;;9.80;99.90;;;;;;4918369;29;20214;-77
2023/03/13 08:55:36;;;;;;;7.63;4.18;;;9.80;99.90;;;;;;4918535;29;20277;-77
2023/03/13 08:58:01;;;;;;;9.02;4.10;;;9.90;99.90;;;;;;4918784;29;20225;-77
2023/03/13 09:00:27;;;;;;;5.20;3.20;;;9.90;99.90;;;;;;4919619;29;20238;-77
2023/03/13 09:02:52;;;;;;;6.05;3.22;;;9.90;99.90;;;;;;4918247;29;20183;-77
2023/03/13 09:05:18;;;;;;;6.03;2.90;;;9.90;99.90;;;;;;4918723;29;20185;-77
2023/03/13 09:07:43;;;;;;;3.97;2.78;;;9.90;99.90;;;;;;4918446;29;20206;-77
2023/03/13 09:10:09;;;;;;;4.95;2.42;;;9.90;99.90;;;;;;4918489;29;20198;-77
2023/03/13 09:12:35;;;;;;;5.15;2.45;;;10.00;99.90;;;;;;4918112;29;20230;-77
